createdAt,value
2023-05-16T00:03:53.208Z,80.50
2023-05-16T00:08:58.092Z,84.50
2023-05-16T00:14:02.861Z,81.25
2023-05-16T00:19:07.992Z,90.75
2023-05-16T00:24:12.945Z,97.50
2023-05-16T00:29:17.721Z,91.75
2023-05-16T00:34:24.320Z,94.50
2023-05-16T00:39:30.528Z,99.50
2023-05-16T00:44:35.734Z,100.00
2023-05-16T00:49:40.733Z,86.00
2023-05-16T00:54:45.709Z,88.50
2023-05-16T00:59:50.557Z,90.75
2023-05-16T01:04:56.193Z,84.00
2023-05-16T01:10:01.221Z,84.75
2023-05-16T01:15:18.158Z,88.00
2023-05-16T01:20:23.575Z,92.25
2023-05-16T01:25:40.462Z,101.75
2023-05-16T01:30:46.292Z,98.00
2023-05-16T01:36:01.726Z,97.75
2023-05-16T01:41:10.492Z,91.00
2023-05-16T01:46:22.934Z,95.25
2023-05-16T01:51:31.793Z,104.00
2023-05-16T01:56:38.366Z,90.75
2023-05-16T02:01:43.790Z,107.75
2023-05-16T02:06:48.910Z,90.25
2023-05-16T02:11:54.122Z,95.00
2023-05-16T02:16:59.360Z,95.75
2023-05-16T02:22:04.490Z,105.75
2023-05-16T02:27:10.289Z,99.50
2023-05-16T02:32:15.050Z,115.00
2023-05-16T02:37:19.760Z,111.50
2023-05-16T02:42:28.720Z,106.25
2023-05-16T02:47:33.380Z,107.00
2023-05-16T02:52:38.357Z,105.50
2023-05-16T02:57:43.244Z,116.75
2023-05-16T03:02:49.844Z,104.75
2023-05-16T03:07:54.602Z,112.33
2023-05-16T03:12:59.240Z,109.75
2023-05-16T03:18:04.335Z,107.00
2023-05-16T03:23:09.903Z,103.00
2023-05-16T03:28:15.544Z,109.75
2023-05-16T03:33:20.613Z,109.50
2023-05-16T03:38:25.822Z,105.50
2023-05-16T03:43:30.742Z,103.25
2023-05-16T03:48:35.397Z,104.00
2023-05-16T03:53:40.251Z,119.50
2023-05-16T03:58:45.242Z,115.00
2023-05-16T04:03:50.275Z,116.25
2023-05-16T04:08:54.970Z,105.50
2023-05-16T04:14:01.030Z,114.00
2023-05-16T04:19:06.152Z,104.50
2023-05-16T04:24:11.335Z,116.25
2023-05-16T04:29:16.811Z,109.50
2023-05-16T04:34:22.215Z,119.00
2023-05-16T04:39:27.349Z,106.50
2023-05-16T04:44:32.527Z,122.00
2023-05-16T04:49:37.689Z,108.25
2023-05-16T04:54:42.790Z,114.75
2023-05-16T04:59:47.493Z,110.00
2023-05-16T05:04:52.242Z,114.50
2023-05-16T05:09:59.816Z,104.75
2023-05-16T05:15:05.025Z,107.25
2023-05-16T05:20:11.695Z,107.25
2023-05-16T05:25:17.056Z,114.00
2023-05-16T05:30:22.353Z,114.25
2023-05-16T05:35:27.528Z,106.75
2023-05-16T05:40:33.169Z,113.00
2023-05-16T05:45:38.744Z,118.50
2023-05-16T05:50:43.752Z,112.00
2023-05-16T05:55:49.009Z,116.50
2023-05-16T06:00:54.042Z,109.50
2023-05-16T06:05:58.942Z,106.00
2023-05-16T06:11:04.484Z,108.75
2023-05-16T06:16:09.663Z,111.50
2023-05-16T06:21:15.014Z,111.75
2023-05-16T06:26:20.951Z,109.25
2023-05-16T06:31:26.254Z,104.75
2023-05-16T06:36:34.002Z,102.25
2023-05-16T06:41:38.879Z,104.00
2023-05-16T06:46:46.821Z,99.75
2023-05-16T06:51:51.601Z,101.00
2023-05-16T06:56:56.300Z,101.50
2023-05-16T07:02:00.896Z,100.50
2023-05-16T07:07:06.377Z,97.00
2023-05-16T07:12:11.176Z,98.75
2023-05-16T07:17:15.870Z,98.75
2023-05-16T07:22:21.531Z,96.75
2023-05-16T07:27:26.520Z,94.25
2023-05-16T07:32:31.382Z,98.50
2023-05-16T07:37:36.446Z,97.00
2023-05-16T07:42:41.246Z,100.75
2023-05-16T07:47:46.392Z,95.75
2023-05-16T07:52:51.571Z,94.25
2023-05-16T07:57:56.530Z,98.25
2023-05-16T08:03:01.859Z,97.75
2023-05-16T08:08:07.326Z,94.75
2023-05-16T08:13:12.535Z,100.25
2023-05-16T08:18:18.820Z,96.50
2023-05-16T08:23:24.941Z,96.25
2023-05-16T08:28:30.061Z,99.00
2023-05-16T08:33:35.524Z,92.50
2023-05-16T08:38:40.472Z,88.25
2023-05-16T08:43:45.289Z,90.75
2023-05-16T08:48:53.643Z,91.75
2023-05-16T08:54:18.586Z,86.00
2023-05-16T08:59:24.038Z,80.25
2023-05-16T09:04:29.315Z,84.50
2023-05-16T09:09:34.269Z,86.25
2023-05-16T09:14:39.607Z,76.00
2023-05-16T09:19:45.838Z,80.00
2023-05-16T09:24:50.469Z,77.50
2023-05-16T09:29:55.719Z,76.00
2023-05-16T09:35:00.288Z,79.50
2023-05-16T09:40:05.240Z,79.75
2023-05-16T09:45:13.901Z,81.25
2023-05-16T09:50:18.497Z,75.50
2023-05-16T09:55:25.012Z,75.75
2023-05-16T10:00:33.778Z,70.75
2023-05-16T10:05:39.275Z,72.00
2023-05-16T10:10:44.778Z,76.25
2023-05-16T10:15:50.666Z,77.50
2023-05-16T10:20:57.357Z,73.25
2023-05-16T10:26:05.044Z,73.75
2023-05-16T10:31:10.251Z,73.00
2023-05-16T10:36:17.046Z,73.25
2023-05-16T10:41:23.379Z,78.50
2023-05-16T10:46:30.840Z,76.25
2023-05-16T10:51:35.609Z,75.75
2023-05-16T10:56:40.222Z,75.75
2023-05-16T11:01:44.700Z,72.75
2023-05-16T11:06:52.801Z,73.50
2023-05-16T11:12:01.673Z,74.00
2023-05-16T11:17:09.017Z,68.50
2023-05-16T11:22:23.317Z,68.75
2023-05-16T11:27:29.292Z,63.75
2023-05-16T11:32:36.657Z,66.50
2023-05-16T11:37:41.075Z,65.50
2023-05-16T11:42:47.331Z,66.75
2023-05-16T11:47:52.046Z,68.00
2023-05-16T11:52:58.854Z,68.00
2023-05-16T11:58:03.385Z,69.00
2023-05-16T12:03:07.944Z,69.50
2023-05-16T12:08:12.416Z,65.00
2023-05-16T12:13:18.746Z,65.75
2023-05-16T12:18:27.928Z,62.25
2023-05-16T12:23:33.033Z,63.75
2023-05-16T12:28:37.675Z,62.50
2023-05-16T12:33:42.756Z,62.50
2023-05-16T12:38:49.763Z,58.00
2023-05-16T12:44:08.216Z,62.75
2023-05-16T12:49:12.743Z,54.50
2023-05-16T12:54:17.620Z,62.50
2023-05-16T12:59:22.275Z,60.75
2023-05-16T13:04:26.657Z,61.25
2023-05-16T13:09:32.801Z,54.00
2023-05-16T13:14:38.391Z,59.00
2023-05-16T13:19:43.338Z,61.00
2023-05-16T13:24:47.734Z,55.75
2023-05-16T13:29:52.016Z,60.75
2023-05-16T13:34:56.662Z,58.00
2023-05-16T13:40:01.100Z,51.50
2023-05-16T13:45:05.788Z,58.50
2023-05-16T13:50:11.438Z,50.00
2023-05-16T13:55:16.012Z,50.50
2023-05-16T14:00:42.665Z,52.00
2023-05-16T14:05:45.129Z,56.50
2023-05-16T14:10:50.926Z,57.50
2023-05-16T14:15:55.316Z,54.00
2023-05-16T14:20:59.722Z,50.75
2023-05-16T14:26:05.312Z,54.00
2023-05-16T14:31:11.682Z,59.75
2023-05-16T14:36:16.322Z,49.75
2023-05-16T14:41:20.635Z,52.00
2023-05-16T14:46:26.079Z,51.75
2023-05-16T14:51:30.979Z,48.75
2023-05-16T14:56:35.417Z,49.00
2023-05-16T15:01:39.848Z,47.25
2023-05-16T15:06:44.476Z,55.50
2023-05-16T15:11:49.790Z,54.25
2023-05-16T15:16:54.555Z,46.50
2023-05-16T15:21:58.965Z,51.00
2023-05-16T15:27:06.112Z,47.00
2023-05-16T15:32:10.998Z,44.75
2023-05-16T15:37:15.583Z,48.75
2023-05-16T15:42:21.686Z,50.00
2023-05-16T15:47:26.247Z,46.75
2023-05-16T15:52:30.732Z,51.75
2023-05-16T15:57:35.042Z,51.00
2023-05-16T16:02:39.201Z,52.25
2023-05-16T16:07:43.904Z,53.25
2023-05-16T16:13:00.115Z,48.00
2023-05-16T16:18:05.062Z,51.00
2023-05-16T16:23:10.271Z,49.00
2023-05-16T16:28:15.071Z,49.75
2023-05-16T16:33:19.963Z,48.50
2023-05-16T16:38:24.862Z,46.00
2023-05-16T16:43:29.652Z,46.75
2023-05-16T16:48:35.761Z,46.00
2023-05-16T16:53:40.574Z,47.50
2023-05-16T16:58:45.215Z,46.00
2023-05-16T17:03:50.209Z,46.50
2023-05-16T17:08:55.028Z,46.25
2023-05-16T17:14:02.079Z,48.25
2023-05-16T17:19:07.128Z,49.00
2023-05-16T17:24:12.307Z,45.50
2023-05-16T17:29:17.208Z,51.25
2023-05-16T17:34:22.247Z,46.00
2023-05-16T17:39:27.172Z,50.25
2023-05-16T17:44:32.022Z,45.00
2023-05-16T17:49:37.616Z,52.00
2023-05-16T17:54:42.456Z,42.25
2023-05-16T17:59:47.449Z,48.25
2023-05-16T18:04:52.866Z,42.00
2023-05-16T18:09:58.050Z,46.50
2023-05-16T18:15:03.154Z,44.00
2023-05-16T18:20:12.054Z,48.00
2023-05-16T18:25:18.026Z,47.25
2023-05-16T18:30:23.457Z,51.25
2023-05-16T18:35:30.037Z,48.75
2023-05-16T18:40:35.337Z,45.00
2023-05-16T18:45:40.052Z,49.50
2023-05-16T18:50:45.392Z,45.50
2023-05-16T18:55:50.484Z,46.50
2023-05-16T19:00:55.097Z,51.00
2023-05-16T19:06:00.005Z,40.75
2023-05-16T19:11:04.918Z,47.00
2023-05-16T19:16:09.649Z,49.75
2023-05-16T19:21:14.644Z,51.25
2023-05-16T19:26:19.331Z,48.00
2023-05-16T19:31:24.399Z,53.25
2023-05-16T19:36:29.464Z,46.25
2023-05-16T19:41:34.593Z,49.75
2023-05-16T19:46:39.798Z,54.00
2023-05-16T19:51:44.710Z,48.00
2023-05-16T19:56:49.532Z,47.00
2023-05-16T20:01:55.034Z,46.00
2023-05-16T20:06:59.826Z,49.25
2023-05-16T20:12:04.885Z,41.75
2023-05-16T20:17:09.804Z,50.00
2023-05-16T20:22:14.696Z,48.00
2023-05-16T20:27:19.570Z,54.00
2023-05-16T20:32:24.522Z,50.00
2023-05-16T20:37:29.441Z,48.00
2023-05-16T20:42:34.126Z,51.00
2023-05-16T20:47:38.993Z,45.50
2023-05-16T20:52:43.999Z,50.00
2023-05-16T20:57:48.898Z,46.75
2023-05-16T21:02:53.796Z,50.75
2023-05-16T21:07:58.689Z,53.75
2023-05-16T21:13:03.480Z,52.50
2023-05-16T21:18:08.386Z,44.75
2023-05-16T21:23:13.282Z,51.00
2023-05-16T21:28:18.165Z,48.25
2023-05-16T21:33:23.391Z,48.75
2023-05-16T21:38:28.733Z,53.00
2023-05-16T21:43:33.696Z,46.75
2023-05-16T21:48:38.783Z,48.00
2023-05-16T21:53:43.551Z,49.75
2023-05-16T21:58:48.237Z,57.75
2023-05-16T22:03:53.581Z,53.00
2023-05-16T22:08:58.815Z,57.25
2023-05-16T22:14:03.829Z,57.25
2023-05-16T22:19:09.168Z,57.75
2023-05-16T22:24:14.082Z,54.75
2023-05-16T22:29:18.854Z,57.50
2023-05-16T22:34:23.733Z,55.75
2023-05-16T22:39:28.555Z,52.00
2023-05-16T22:44:34.168Z,62.50
2023-05-16T22:49:39.223Z,54.25
2023-05-16T22:54:44.156Z,53.00
2023-05-16T22:59:49.121Z,56.75
2023-05-16T23:04:54.376Z,59.00
2023-05-16T23:09:59.104Z,52.25
2023-05-16T23:15:04.780Z,61.25
2023-05-16T23:20:09.827Z,54.75
2023-05-16T23:25:14.717Z,55.50
2023-05-16T23:30:19.792Z,52.25
2023-05-16T23:35:24.769Z,55.00
2023-05-16T23:40:29.681Z,56.00
2023-05-16T23:45:34.964Z,56.50
2023-05-16T23:50:39.867Z,54.00
2023-05-16T23:55:44.837Z,52.00
